createdAt,value
2018-11-28T00:00:36.181Z,3.77
2018-11-28T00:03:07.380Z,2.70
2018-11-28T00:05:36.903Z,3.40
2018-11-28T00:08:06.510Z,3.63
2018-11-28T00:10:36.053Z,3.10
2018-11-28T00:13:05.673Z,3.20
2018-11-28T00:15:35.189Z,3.30
2018-11-28T00:18:04.773Z,3.67
2018-11-28T00:20:34.313Z,3.60
2018-11-28T00:23:03.838Z,3.23
2018-11-28T00:25:33.337Z,2.83
2018-11-28T00:28:02.852Z,3.33
2018-11-28T00:30:32.401Z,3.07
2018-11-28T00:33:01.913Z,3.07
2018-11-28T00:35:31.409Z,3.40
2018-11-28T00:38:00.954Z,3.30
2018-11-28T00:40:30.484Z,2.37
2018-11-28T00:42:59.985Z,2.63
2018-11-28T00:45:29.524Z,2.67
2018-11-28T00:47:59.032Z,2.67
2018-11-28T00:50:28.744Z,2.43
2018-11-28T00:52:58.277Z,1.83
2018-11-28T00:55:27.796Z,1.40
2018-11-28T00:57:57.316Z,1.50
2018-11-28T01:00:27.653Z,2.00
2018-11-28T01:02:57.185Z,1.63
2018-11-28T01:05:26.678Z,2.07
2018-11-28T01:07:56.488Z,1.63
2018-11-28T01:10:26.295Z,1.80
2018-11-28T01:12:55.878Z,1.50
2018-11-28T01:15:25.412Z,1.90
2018-11-28T01:17:54.984Z,1.83
2018-11-28T01:20:24.656Z,1.50
2018-11-28T01:22:54.161Z,2.07
2018-11-28T01:25:23.812Z,1.80
2018-11-28T01:27:53.354Z,1.57
2018-11-28T01:30:24.701Z,2.10
2018-11-28T01:32:54.204Z,1.67
2018-11-28T01:35:23.796Z,2.50
2018-11-28T01:37:53.264Z,1.63
2018-11-28T01:40:24.524Z,1.63
2018-11-28T01:42:54.163Z,2.13
2018-11-28T01:45:24.334Z,2.20
2018-11-28T01:47:53.862Z,1.50
2018-11-28T01:50:23.422Z,1.90
2018-11-28T01:52:52.884Z,2.37
2018-11-28T01:55:23.012Z,2.23
2018-11-28T01:57:52.620Z,2.10
2018-11-28T02:00:25.108Z,1.20
2018-11-28T02:02:59.605Z,1.43
2018-11-28T02:05:29.145Z,1.60
2018-11-28T02:07:58.711Z,1.63
2018-11-28T02:10:28.190Z,1.67
2018-11-28T02:12:57.695Z,0.70
2018-11-28T02:15:27.817Z,1.57
2018-11-28T02:17:58.096Z,0.80
2018-11-28T02:20:27.580Z,1.57
2018-11-28T02:22:57.109Z,0.70
2018-11-28T02:25:26.612Z,0.70
2018-11-28T02:27:56.092Z,0.80
2018-11-28T02:30:25.633Z,0.93
2018-11-28T02:32:55.134Z,0.60
2018-11-28T02:35:24.658Z,0.80
2018-11-28T02:37:54.145Z,1.93
2018-11-28T02:40:23.674Z,0.70
2018-11-28T02:42:53.170Z,1.00
2018-11-28T02:45:23.141Z,0.90
2018-11-28T02:47:53.076Z,1.37
2018-11-28T02:50:22.568Z,0.60
2018-11-28T02:52:52.095Z,1.57
2018-11-28T02:55:21.555Z,1.00
2018-11-28T02:57:51.261Z,1.00
2018-11-28T03:00:23.744Z,1.23
2018-11-28T03:02:53.448Z,0.90
2018-11-28T03:05:23.001Z,1.33
2018-11-28T03:07:52.525Z,1.00
2018-11-28T03:10:22.990Z,0.57
2018-11-28T03:12:52.652Z,0.53
2018-11-28T03:15:28.514Z,0.93
2018-11-28T03:17:59.004Z,0.70
2018-11-28T03:20:28.540Z,1.10
2018-11-28T03:22:58.029Z,0.70
2018-11-28T03:25:27.587Z,0.83
2018-11-28T03:27:57.085Z,0.90
2018-11-28T03:30:26.637Z,0.90
2018-11-28T03:32:56.158Z,0.47
2018-11-28T03:35:25.693Z,0.70
2018-11-28T03:37:55.177Z,0.70
2018-11-28T03:40:24.730Z,1.00
2018-11-28T03:42:54.223Z,0.73
2018-11-28T03:45:23.748Z,0.50
2018-11-28T03:47:53.260Z,0.70
2018-11-28T03:50:22.778Z,1.50
2018-11-28T03:52:52.274Z,0.77
2018-11-28T03:55:21.792Z,0.43
2018-11-28T03:57:51.408Z,0.57
2018-11-28T04:00:21.834Z,0.70
2018-11-28T04:02:51.686Z,0.90
2018-11-28T04:05:21.254Z,0.70
2018-11-28T04:07:50.753Z,0.50
2018-11-28T04:10:20.270Z,0.70
2018-11-28T04:12:49.752Z,0.47
2018-11-28T04:15:21.840Z,0.40
2018-11-28T04:17:51.329Z,0.50
2018-11-28T04:20:21.774Z,0.40
2018-11-28T04:22:51.397Z,0.50
2018-11-28T04:25:21.929Z,0.50
2018-11-28T04:27:51.686Z,1.60
2018-11-28T04:30:25.017Z,0.50
2018-11-28T04:32:55.418Z,1.13
2018-11-28T04:35:25.129Z,0.50
2018-11-28T04:37:54.609Z,1.03
2018-11-28T04:40:24.144Z,0.50
2018-11-28T04:42:53.631Z,1.10
2018-11-28T04:45:23.871Z,0.93
2018-11-28T04:47:54.406Z,0.70
2018-11-28T04:50:24.028Z,0.60
2018-11-28T04:52:53.550Z,0.40
2018-11-28T04:55:23.118Z,0.90
2018-11-28T04:57:52.712Z,0.57
2018-11-28T05:00:24.191Z,0.77
2018-11-28T05:02:54.732Z,0.40
2018-11-28T05:05:24.302Z,1.70
2018-11-28T05:07:54.083Z,0.50
2018-11-28T05:10:24.545Z,0.73
2018-11-28T05:12:54.472Z,0.90
2018-11-28T05:15:25.801Z,0.80
2018-11-28T05:17:55.468Z,0.53
2018-11-28T05:20:25.897Z,0.77
2018-11-28T05:22:55.422Z,1.37
2018-11-28T05:25:25.857Z,0.60
2018-11-28T05:27:59.841Z,0.63
2018-11-28T05:30:30.173Z,0.80
2018-11-28T05:32:59.920Z,0.67
2018-11-28T05:35:37.344Z,0.50
2018-11-28T05:38:09.338Z,0.67
2018-11-28T05:40:38.852Z,0.90
2018-11-28T05:43:08.392Z,1.03
2018-11-28T05:45:37.916Z,1.10
2018-11-28T05:48:07.443Z,0.80
2018-11-28T05:50:36.973Z,0.90
2018-11-28T05:53:06.533Z,1.10
2018-11-28T05:55:36.066Z,1.20
2018-11-28T05:58:06.165Z,0.70
2018-11-28T06:00:37.138Z,0.70
2018-11-28T06:03:10.365Z,1.10
2018-11-28T06:05:41.807Z,1.10
2018-11-28T06:08:11.329Z,2.50
2018-11-28T06:10:40.885Z,0.60
2018-11-28T06:13:10.442Z,0.60
2018-11-28T06:15:39.940Z,0.87
2018-11-28T06:18:09.902Z,1.13
2018-11-28T06:20:39.397Z,1.80
2018-11-28T06:23:09.056Z,1.43
2018-11-28T06:25:38.796Z,0.73
2018-11-28T06:28:08.418Z,1.20
2018-11-28T06:30:38.036Z,1.10
2018-11-28T06:33:07.584Z,1.57
2018-11-28T06:35:37.145Z,1.27
2018-11-28T06:38:06.701Z,1.00
2018-11-28T06:40:36.306Z,1.07
2018-11-28T06:43:06.032Z,1.87
2018-11-28T06:45:36.099Z,1.50
2018-11-28T06:48:05.829Z,1.97
2018-11-28T06:50:35.416Z,1.60
2018-11-28T06:53:05.007Z,2.37
2018-11-28T06:55:34.544Z,1.77
2018-11-28T06:58:04.035Z,2.10
2018-11-28T07:00:33.573Z,2.40
2018-11-28T07:03:03.096Z,1.90
2018-11-28T07:05:32.640Z,2.33
2018-11-28T07:08:02.156Z,1.87
2018-11-28T07:10:32.002Z,1.80
2018-11-28T07:13:01.520Z,2.07
2018-11-28T07:15:31.120Z,1.73
2018-11-28T07:19:10.826Z,2.57
2018-11-28T07:21:40.421Z,2.50
2018-11-28T07:24:09.969Z,2.50
2018-11-28T07:26:39.573Z,2.53
2018-11-28T07:29:09.061Z,2.57
2018-11-28T07:31:38.885Z,2.60
2018-11-28T07:34:08.500Z,2.47
2018-11-28T07:36:38.217Z,2.50
2018-11-28T07:39:08.061Z,2.67
2018-11-28T07:41:37.793Z,5.10
2018-11-28T07:44:07.539Z,5.53
2018-11-28T07:46:37.119Z,3.10
2018-11-28T07:49:06.881Z,2.97
2018-11-28T07:51:36.907Z,3.27
2018-11-28T07:54:07.072Z,3.60
2018-11-28T07:56:36.671Z,3.80
2018-11-28T07:59:06.529Z,3.50
2018-11-28T08:01:36.380Z,3.07
2018-11-28T08:04:06.577Z,3.20
2018-11-28T08:06:36.248Z,3.50
2018-11-28T08:09:07.293Z,4.43
2018-11-28T08:11:38.134Z,4.20
2018-11-28T08:14:06.887Z,4.40
2018-11-28T08:16:36.791Z,3.43
2018-11-28T08:19:06.736Z,3.50
2018-11-28T08:21:36.375Z,2.77
2018-11-28T08:24:06.595Z,1.87
2018-11-28T08:26:36.228Z,2.20
2018-11-28T08:29:06.137Z,1.73
2018-11-28T08:31:35.838Z,2.00
2018-11-28T08:34:05.625Z,1.97
2018-11-28T08:36:35.234Z,2.60
2018-11-28T08:39:05.987Z,2.80
2018-11-28T08:41:35.633Z,3.03
2018-11-28T08:44:05.468Z,3.40
2018-11-28T08:46:35.145Z,3.17
2018-11-28T08:49:04.888Z,3.63
2018-11-28T08:51:34.525Z,4.93
2018-11-28T08:54:04.173Z,3.70
2018-11-28T08:56:33.775Z,3.87
2018-11-28T08:59:03.449Z,4.37
2018-11-28T09:01:33.220Z,3.70
2018-11-28T09:04:02.793Z,3.80
2018-11-28T09:06:32.410Z,4.37
2018-11-28T09:09:02.133Z,2.57
2018-11-28T09:11:32.927Z,3.13
2018-11-28T09:14:04.596Z,3.10
2018-11-28T09:16:32.341Z,2.70
2018-11-28T09:19:01.940Z,3.07
2018-11-28T09:21:31.619Z,2.97
2018-11-28T09:24:01.161Z,3.40
2018-11-28T09:26:30.791Z,2.67
2018-11-28T09:29:00.433Z,3.10
2018-11-28T09:31:30.230Z,3.30
2018-11-28T09:33:59.947Z,3.70
2018-11-28T09:36:29.973Z,3.50
2018-11-28T09:38:59.599Z,3.00
2018-11-28T09:41:29.292Z,2.93
2018-11-28T09:43:58.901Z,2.90
2018-11-28T09:46:28.497Z,3.00
2018-11-28T09:48:58.136Z,3.20
2018-11-28T09:51:27.809Z,2.77
2018-11-28T09:53:57.520Z,2.27
2018-11-28T09:56:27.167Z,2.30
2018-11-28T09:58:56.877Z,2.40
2018-11-28T10:01:26.458Z,2.50
2018-11-28T10:03:56.030Z,2.30
2018-11-28T10:06:25.714Z,2.63
2018-11-28T10:08:55.409Z,1.90
2018-11-28T10:11:25.082Z,1.37
2018-11-28T10:13:54.722Z,1.27
2018-11-28T10:16:24.273Z,2.07
2018-11-28T10:18:53.861Z,1.60
2018-11-28T10:21:23.462Z,1.30
2018-11-28T10:23:53.218Z,2.33
2018-11-28T10:26:22.841Z,2.53
2018-11-28T10:28:52.587Z,1.13
2018-11-28T10:31:22.211Z,2.20
2018-11-28T10:33:52.008Z,1.70
2018-11-28T10:36:21.621Z,1.87
2018-11-28T10:38:51.308Z,1.70
2018-11-28T10:41:20.856Z,1.93
2018-11-28T10:43:50.497Z,2.43
2018-11-28T10:46:20.110Z,3.40
2018-11-28T10:48:49.654Z,3.70
2018-11-28T10:51:19.381Z,2.30
2018-11-28T10:53:48.963Z,3.23
2018-11-28T10:56:18.526Z,2.07
2018-11-28T10:58:48.255Z,1.53
2018-11-28T11:01:23.933Z,1.97
2018-11-28T11:03:56.651Z,2.50
2018-11-28T11:06:31.246Z,1.90
2018-11-28T11:09:05.981Z,1.87
2018-11-28T11:11:40.528Z,0.97
2018-11-28T11:14:15.199Z,1.50
2018-11-28T11:16:44.781Z,2.00
2018-11-28T11:19:14.508Z,1.23
2018-11-28T11:21:44.150Z,2.00
2018-11-28T11:24:13.800Z,1.53
2018-11-28T11:26:43.437Z,0.80
2018-11-28T11:29:13.002Z,0.83
2018-11-28T11:31:42.612Z,1.50
2018-11-28T11:34:12.315Z,1.13
2018-11-28T11:36:41.946Z,0.70
2018-11-28T11:39:11.484Z,1.00
2018-11-28T11:41:41.116Z,0.90
2018-11-28T11:44:10.685Z,0.87
2018-11-28T11:46:40.244Z,0.50
2018-11-28T11:49:09.884Z,0.77
2018-11-28T11:51:39.474Z,1.07
2018-11-28T11:54:09.362Z,0.67
2018-11-28T11:56:40.119Z,0.90
2018-11-28T11:59:09.912Z,1.07
2018-11-28T12:01:39.630Z,1.10
2018-11-28T12:04:09.427Z,1.23
2018-11-28T12:06:39.124Z,1.20
2018-11-28T12:09:10.005Z,0.60
2018-11-28T12:11:39.654Z,1.23
2018-11-28T12:14:09.202Z,0.80
2018-11-28T12:16:39.124Z,0.70
2018-11-28T12:19:08.711Z,0.80
2018-11-28T12:21:38.363Z,1.50
2018-11-28T12:24:07.952Z,1.47
2018-11-28T12:26:37.753Z,1.10
2018-11-28T12:29:07.638Z,1.27
2018-11-28T12:31:37.221Z,1.67
2018-11-28T12:34:06.925Z,2.33
2018-11-28T12:36:36.631Z,1.60
2018-11-28T12:39:09.596Z,1.40
2018-11-28T12:41:39.198Z,1.40
2018-11-28T12:44:08.924Z,1.40
2018-11-28T12:46:38.632Z,0.60
2018-11-28T12:49:08.353Z,0.70
2018-11-28T12:51:37.992Z,1.40
2018-11-28T12:54:07.621Z,1.70
2018-11-28T12:56:37.294Z,2.13
2018-11-28T12:59:06.816Z,1.70
2018-11-28T13:01:36.362Z,2.10
2018-11-28T13:04:06.377Z,1.50
2018-11-28T13:06:35.888Z,2.63
2018-11-28T13:09:06.328Z,1.80
2018-11-28T13:11:35.824Z,2.40
2018-11-28T13:14:05.594Z,2.10
2018-11-28T13:16:35.070Z,1.73
2018-11-28T13:19:04.616Z,1.93
2018-11-28T13:21:34.099Z,1.77
2018-11-28T13:24:03.633Z,1.17
2018-11-28T13:26:33.176Z,1.70
2018-11-28T13:29:02.728Z,2.07
2018-11-28T13:31:32.287Z,2.53
2018-11-28T13:34:01.881Z,2.10
2018-11-28T13:36:31.400Z,1.70
2018-11-28T13:39:00.961Z,2.33
2018-11-28T13:41:30.472Z,1.70
2018-11-28T13:43:59.970Z,1.23
2018-11-28T13:46:29.572Z,1.70
2018-11-28T13:48:59.124Z,1.40
2018-11-28T13:51:28.612Z,1.57
2018-11-28T13:53:58.785Z,2.93
2018-11-28T13:56:58.255Z,1.97
2018-11-28T13:58:57.777Z,1.80
2018-11-28T14:01:27.332Z,2.30
2018-11-28T14:03:56.825Z,2.00
2018-11-28T14:06:26.338Z,1.73
2018-11-28T14:08:55.856Z,2.00
2018-11-28T14:11:25.415Z,1.57
2018-11-28T14:13:54.926Z,2.37
2018-11-28T14:16:24.481Z,2.30
2018-11-28T14:18:54.061Z,3.13
2018-11-28T14:21:23.602Z,3.00
2018-11-28T14:23:53.168Z,2.43
2018-11-28T14:26:22.645Z,2.57
2018-11-28T14:28:53.037Z,2.30
2018-11-28T14:31:22.569Z,2.47
2018-11-28T14:33:52.217Z,3.17
2018-11-28T14:36:21.724Z,1.67
2018-11-28T14:38:51.330Z,2.33
2018-11-28T14:41:20.801Z,2.37
2018-11-28T14:43:50.345Z,2.47
2018-11-28T14:46:19.884Z,3.40
2018-11-28T14:48:50.342Z,2.60
2018-11-28T14:51:19.877Z,3.70
2018-11-28T14:53:49.731Z,2.27
2018-11-28T14:56:19.322Z,1.23
2018-11-28T14:58:48.856Z,1.50
2018-11-28T15:01:18.484Z,6.60
2018-11-28T15:03:48.041Z,1.70
2018-11-28T15:06:23.646Z,2.67
2018-11-28T15:08:57.249Z,1.47
2018-11-28T15:11:26.845Z,1.60
2018-11-28T15:13:56.364Z,1.57
2018-11-28T15:16:25.918Z,1.90
2018-11-28T15:18:55.430Z,1.80
2018-11-28T15:21:25.028Z,1.73
2018-11-28T15:23:54.590Z,2.97
2018-11-28T15:26:24.211Z,1.40
2018-11-28T15:28:53.826Z,2.20
2018-11-28T15:31:24.143Z,2.50
2018-11-28T15:33:53.201Z,1.90
2018-11-28T15:36:22.755Z,2.63
2018-11-28T15:38:52.274Z,3.53
2018-11-28T15:41:21.831Z,2.20
2018-11-28T15:43:51.394Z,2.30
2018-11-28T15:46:20.966Z,2.30
2018-11-28T15:48:50.522Z,2.57
2018-11-28T15:51:20.031Z,2.73
2018-11-28T15:53:49.713Z,2.50
2018-11-28T15:56:19.308Z,2.40
2018-11-28T15:58:48.825Z,2.90
2018-11-28T16:01:18.417Z,7.67
2018-11-28T16:03:47.916Z,5.07
2018-11-28T16:06:17.466Z,2.60
2018-11-28T16:08:47.105Z,5.40
2018-11-28T16:11:18.189Z,6.87
2018-11-28T16:13:47.730Z,4.10
2018-11-28T16:16:17.303Z,3.63
2018-11-28T16:18:46.881Z,3.40
2018-11-28T16:21:16.456Z,3.30
2018-11-28T16:23:45.976Z,3.67
2018-11-28T16:26:15.548Z,4.00
2018-11-28T16:28:45.093Z,2.60
2018-11-28T16:31:14.593Z,3.63
2018-11-28T16:33:44.105Z,4.30
2018-11-28T16:36:13.636Z,4.13
2018-11-28T16:38:44.140Z,5.50
2018-11-28T16:41:13.642Z,6.50
2018-11-28T16:43:43.253Z,5.13
2018-11-28T16:46:13.585Z,3.83
2018-11-28T16:48:43.124Z,4.20
2018-11-28T16:51:12.605Z,3.17
2018-11-28T16:53:42.176Z,3.33
2018-11-28T16:56:11.692Z,3.20
2018-11-28T16:58:41.233Z,3.77
2018-11-28T17:01:10.757Z,3.70
2018-11-28T17:03:40.284Z,3.50
2018-11-28T17:06:09.760Z,3.37
2018-11-28T17:08:39.300Z,3.60
2018-11-28T17:11:08.833Z,3.50
2018-11-28T17:13:38.308Z,3.00
2018-11-28T17:16:07.871Z,3.40
2018-11-28T17:18:37.344Z,3.87
2018-11-28T17:21:06.993Z,3.40
2018-11-28T17:23:36.503Z,4.10
2018-11-28T17:26:06.120Z,4.33
2018-11-28T17:28:35.662Z,3.70
2018-11-28T17:31:05.276Z,4.90
2018-11-28T17:33:34.793Z,5.27
2018-11-28T17:36:04.288Z,4.90
2018-11-28T17:38:33.958Z,4.90
2018-11-28T17:41:03.460Z,5.47
2018-11-28T17:43:32.985Z,5.40
2018-11-28T17:46:02.464Z,5.30
2018-11-28T17:48:32.064Z,5.20
2018-11-28T17:51:01.540Z,4.40
2018-11-28T17:53:31.017Z,5.17
2018-11-28T17:56:00.520Z,5.10
2018-11-28T17:58:30.059Z,4.47
2018-11-28T18:00:59.613Z,4.93
2018-11-28T18:03:29.134Z,4.57
2018-11-28T18:05:58.654Z,4.07
2018-11-28T18:08:28.156Z,4.20
2018-11-28T18:11:09.278Z,4.60
2018-11-28T18:13:39.576Z,4.17
2018-11-28T18:16:08.504Z,4.70
2018-11-28T18:18:38.057Z,5.20
2018-11-28T18:21:07.769Z,5.17
2018-11-28T18:23:37.291Z,4.47
2018-11-28T18:26:09.060Z,5.30
2018-11-28T18:28:38.608Z,5.13
2018-11-28T18:31:08.166Z,5.90
2018-11-28T18:33:37.720Z,4.93
2018-11-28T18:36:07.300Z,4.83
2018-11-28T18:38:36.885Z,4.40
2018-11-28T18:41:06.932Z,4.30
2018-11-28T18:43:37.044Z,4.13
2018-11-28T18:46:07.341Z,4.23
2018-11-28T18:48:36.869Z,4.10
2018-11-28T18:51:06.645Z,3.93
2018-11-28T18:53:36.148Z,4.13
2018-11-28T18:56:05.698Z,3.77
2018-11-28T18:58:35.209Z,3.83
2018-11-28T19:01:04.716Z,4.70
2018-11-28T19:03:34.221Z,4.33
2018-11-28T19:06:03.793Z,3.87
2018-11-28T19:08:33.298Z,4.80
2018-11-28T19:11:03.231Z,5.10
2018-11-28T19:13:32.349Z,5.10
2018-11-28T19:16:01.868Z,5.77
2018-11-28T19:18:31.375Z,5.20
2018-11-28T19:21:00.944Z,5.60
2018-11-28T19:23:30.408Z,4.90
2018-11-28T19:25:59.875Z,5.40
2018-11-28T19:28:29.344Z,5.47
2018-11-28T19:30:58.869Z,5.13
2018-11-28T19:33:28.336Z,4.50
2018-11-28T19:35:57.869Z,4.73
2018-11-28T19:38:27.372Z,4.90
2018-11-28T19:40:59.656Z,4.87
2018-11-28T19:43:29.234Z,5.20
2018-11-28T19:45:58.765Z,5.00
2018-11-28T19:48:28.262Z,5.93
2018-11-28T19:50:57.808Z,5.67
2018-11-28T19:53:27.276Z,5.80
2018-11-28T19:55:56.772Z,5.30
2018-11-28T19:58:26.269Z,5.80
2018-11-28T20:00:55.828Z,7.27
2018-11-28T20:03:25.360Z,8.83
2018-11-28T20:05:54.920Z,8.23
2018-11-28T20:08:24.396Z,8.10
2018-11-28T20:10:53.988Z,8.23
2018-11-28T20:13:23.507Z,5.80
2018-11-28T20:15:53.557Z,4.40
2018-11-28T20:18:23.104Z,5.50
2018-11-28T20:20:52.613Z,7.20
2018-11-28T20:23:22.089Z,7.47
2018-11-28T20:25:51.905Z,5.40
2018-11-28T20:28:21.430Z,5.63
2018-11-28T20:30:50.972Z,5.00
2018-11-28T20:33:20.477Z,7.93
2018-11-28T20:35:50.480Z,6.63
2018-11-28T20:38:24.489Z,7.47
2018-11-28T20:40:54.001Z,7.43
2018-11-28T20:43:23.492Z,5.97
2018-11-28T20:45:53.036Z,5.87
2018-11-28T20:48:22.504Z,6.67
2018-11-28T20:50:52.569Z,6.73
2018-11-28T20:53:22.664Z,5.20
2018-11-28T20:55:52.187Z,4.90
2018-11-28T20:58:21.672Z,4.50
2018-11-28T21:00:51.197Z,4.50
2018-11-28T21:03:20.764Z,4.60
2018-11-28T21:05:50.307Z,4.50
2018-11-28T21:08:19.840Z,4.93
2018-11-28T21:10:49.357Z,5.37
2018-11-28T21:13:18.893Z,5.17
2018-11-28T21:15:48.416Z,5.00
2018-11-28T21:18:17.972Z,4.80
2018-11-28T21:20:47.685Z,5.03
2018-11-28T21:23:18.600Z,5.50
2018-11-28T21:25:48.861Z,4.83
2018-11-28T21:28:18.398Z,5.30
2018-11-28T21:30:48.014Z,5.20
2018-11-28T21:33:17.564Z,4.80
2018-11-28T21:35:49.628Z,5.30
2018-11-28T21:38:19.154Z,5.50
2018-11-28T21:40:48.682Z,5.53
2018-11-28T21:43:18.184Z,5.17
2018-11-28T21:45:47.698Z,5.23
2018-11-28T21:48:17.291Z,6.00
2018-11-28T21:50:46.827Z,6.30
2018-11-28T21:53:16.355Z,7.20
2018-11-28T21:55:45.822Z,7.83
2018-11-28T21:58:15.405Z,10.37
2018-11-28T22:00:44.950Z,9.90
2018-11-28T22:03:14.436Z,8.90
2018-11-28T22:05:43.944Z,7.97
2018-11-28T22:08:13.403Z,7.10
2018-11-28T22:10:42.934Z,5.90
2018-11-28T22:13:12.473Z,5.17
2018-11-28T22:15:41.981Z,5.20
2018-11-28T22:18:12.024Z,5.97
2018-11-28T22:20:41.026Z,5.97
2018-11-28T22:23:11.098Z,5.43
2018-11-28T22:25:40.644Z,5.87
2018-11-28T22:28:10.128Z,5.57
2018-11-28T22:30:39.656Z,6.20
2018-11-28T22:33:09.190Z,6.13
2018-11-28T22:35:38.656Z,6.13
2018-11-28T22:38:08.144Z,6.50
2018-11-28T22:40:37.674Z,6.80
2018-11-28T22:43:07.140Z,6.60
2018-11-28T22:45:36.709Z,6.07
2018-11-28T22:48:06.300Z,6.57
2018-11-28T22:50:35.825Z,6.93
2018-11-28T22:53:05.333Z,6.57
2018-11-28T22:55:34.820Z,6.57
2018-11-28T22:58:04.322Z,6.60
2018-11-28T23:00:38.892Z,5.90
2018-11-28T23:03:09.578Z,5.60
2018-11-28T23:05:44.285Z,5.63
2018-11-28T23:08:14.908Z,5.30
2018-11-28T23:10:44.473Z,5.50
2018-11-28T23:13:14.874Z,6.10
2018-11-28T23:15:44.379Z,6.13
2018-11-28T23:18:20.428Z,5.53
2018-11-28T23:20:49.980Z,6.03
2018-11-28T23:23:19.461Z,6.20
2018-11-28T23:25:49.028Z,5.97
2018-11-28T23:28:18.516Z,6.17
2018-11-28T23:30:48.009Z,5.47
2018-11-28T23:33:17.506Z,5.30
2018-11-28T23:35:46.996Z,5.50
2018-11-28T23:38:16.473Z,5.30
2018-11-28T23:40:45.962Z,5.70
2018-11-28T23:43:15.616Z,5.33
2018-11-28T23:45:45.087Z,5.57
2018-11-28T23:48:14.595Z,5.30
2018-11-28T23:50:44.068Z,5.07
2018-11-28T23:53:13.662Z,5.87
2018-11-28T23:55:43.144Z,5.27
2018-11-28T23:58:12.660Z,5.20
